General Aviation Weather

Text Reports

Enter one or more of the following location identifiers separated by a space:

Zip Code, Four-Character ICAO or Three-Character IATA airport codes.

METAR - Aviation Routine Weather Report
KHWD - Hayward, California
Updated at 11:54 AM GMT on February 24, 2017 (3:54 AM PST):
METAR KHWD 241154Z 07004KT 10SM CLR 04/00 A3022 RMK AO2 SLP242 T00390000 10078 20033 58010
TAF - Terminal Area Forecast
KHWD - Hayward, California
Updated at 11:54 AM GMT on February 24, 2017 (3:54 AM PST):
No TAF is currently available for this location.
Decoded:
No decoded TAF is available.
PIREP - Pilot Weather Report
KHWD - Hayward, California
Updated at 11:54 AM GMT on February 24, 2017 (3:54 AM PST):
No PIREP is currently available for this location.
AIRMET - Airmens Meteorological Information
KHWD - Hayward, California
Updated at 11:54 AM GMT on February 24, 2017 (3:54 AM PST):
No AIRMET is currently available for this location.
SIGMET - Significant Meteorological Information
KHWD - Hayward, California
Updated at 11:54 AM GMT on February 24, 2017 (3:54 AM PST):
No SIGMET is currently available for this location.
NOTAM - Notice to Airmen
KHWD - Hayward, California
Updated at 11:54 AM GMT on February 24, 2017 (3:54 AM PST):
No NOTAM is currently available for this location.
Forecast Area
KHWD - Hayward, California
Updated at 11:54 AM GMT on February 24, 2017 (3:54 AM PST):
No NOTAM is currently available for this location.
Aviation Weather Maps